Terminal Aerodrome Forecast
Issued by NWS Birmingham, AL

Home | Current Version | Previous Version | Text Only | Print | Product List | Glossary On
Versions: 1 2 3 4 5 6 7 8 9 10 11 12 13 14
000
FTUS44 KBMX 141737
TAFBHM
TAF
KBHM 141737Z 1418/1518 28007KT P6SM SCT250
     FM150100 35004KT P6SM SCT200
     FM151400 33007KT P6SM BKN200=

USA.gov is the U.S. government's official web portal to all federal, state and local government web resources and services.